createdAt,value
2023-03-27T00:01:02.366Z,97774.00
2023-03-27T00:03:34.521Z,97772.41
2023-03-27T00:06:12.079Z,97765.38
2023-03-27T00:08:46.474Z,97757.69
2023-03-27T00:11:22.126Z,97753.44
2023-03-27T00:13:54.883Z,97753.84
2023-03-27T00:16:27.660Z,97747.84
2023-03-27T00:19:00.514Z,97752.97
2023-03-27T00:21:32.208Z,97749.94
2023-03-27T00:24:06.201Z,97754.03
2023-03-27T00:26:41.459Z,97754.66
2023-03-27T00:29:13.545Z,97751.22
2023-03-27T00:31:45.399Z,97750.16
2023-03-27T00:34:17.100Z,97758.06
2023-03-27T00:36:51.228Z,97752.56
2023-03-27T00:39:23.791Z,97748.31
2023-03-27T00:41:56.084Z,97742.28
2023-03-27T00:44:34.919Z,97742.66
2023-03-27T00:47:10.224Z,97740.13
2023-03-27T00:49:42.754Z,97739.91
2023-03-27T00:52:16.805Z,97738.28
2023-03-27T00:54:52.186Z,97745.78
2023-03-27T00:57:25.174Z,97744.78
2023-03-27T01:00:00.614Z,97738.28
2023-03-27T01:02:32.409Z,97737.50
2023-03-27T01:05:04.861Z,97737.50
2023-03-27T01:07:37.982Z,97737.28
2023-03-27T01:10:12.067Z,97737.09
2023-03-27T01:13:21.317Z,97739.91
2023-03-27T01:16:05.731Z,97739.91
2023-03-27T01:19:00.918Z,97746.22
2023-03-27T01:21:51.865Z,97741.59
2023-03-27T01:24:59.119Z,97740.81
2023-03-27T01:27:53.934Z,97744.63
2023-03-27T01:30:42.311Z,97734.69
2023-03-27T01:33:50.468Z,97728.63
2023-03-27T01:36:39.804Z,97734.28
2023-03-27T01:39:18.851Z,97729.34
2023-03-27T01:42:31.509Z,97735.34
2023-03-27T01:45:10.934Z,97732.19
2023-03-27T01:48:11.164Z,97734.84
2023-03-27T01:50:48.699Z,97725.94
2023-03-27T01:53:29.943Z,97731.94
2023-03-27T01:56:10.605Z,97725.28
2023-03-27T01:58:46.405Z,97741.47
2023-03-27T02:01:28.314Z,97741.94
2023-03-27T02:04:03.926Z,97740.78
2023-03-27T02:06:44.316Z,97744.47
2023-03-27T02:09:22.088Z,97746.09
2023-03-27T02:12:01.816Z,97744.69
2023-03-27T02:14:43.674Z,97739.16
2023-03-27T02:17:19.202Z,97744.63
2023-03-27T02:19:56.900Z,97748.72
2023-03-27T02:22:37.590Z,97753.44
2023-03-27T02:25:30.020Z,97748.06
2023-03-27T02:28:19.907Z,97754.13
2023-03-27T02:31:33.303Z,97752.31
2023-03-27T02:34:35.427Z,97758.81
2023-03-27T02:37:32.305Z,97756.38
2023-03-27T02:40:40.419Z,97762.03
2023-03-27T02:43:48.855Z,97760.16
2023-03-27T02:46:36.763Z,97768.41
2023-03-27T02:49:16.104Z,97764.78
2023-03-27T02:51:54.280Z,97774.13
2023-03-27T02:54:34.472Z,97779.38
2023-03-27T02:57:21.818Z,97785.88
2023-03-27T03:00:33.131Z,97791.69
2023-03-27T03:03:44.522Z,97788.03
2023-03-27T03:06:34.706Z,97791.88
2023-03-27T03:09:06.747Z,97798.13
2023-03-27T03:11:48.389Z,97803.16
2023-03-27T03:14:25.507Z,97804.03
2023-03-27T03:16:57.305Z,97805.34
2023-03-27T03:19:29.086Z,97811.75
2023-03-27T03:22:01.723Z,97822.78
2023-03-27T03:24:42.007Z,97826.94
2023-03-27T03:27:15.423Z,97825.06
2023-03-27T03:30:00.774Z,97827.13
2023-03-27T03:32:34.079Z,97835.31
2023-03-27T03:35:08.956Z,97833.69
2023-03-27T03:37:41.700Z,97844.50
2023-03-27T03:40:18.875Z,97850.81
2023-03-27T03:42:52.861Z,97853.34
2023-03-27T03:45:29.123Z,97858.97
2023-03-27T03:48:01.148Z,97865.75
2023-03-27T03:50:33.071Z,97875.44
2023-03-27T03:53:05.236Z,97884.47
2023-03-27T03:55:37.442Z,97888.84
2023-03-27T03:58:09.842Z,97894.44
2023-03-27T04:00:44.546Z,97899.22
2023-03-27T04:03:32.407Z,97904.00
2023-03-27T04:06:05.623Z,97917.00
2023-03-27T04:08:37.894Z,97944.44
2023-03-27T04:11:10.268Z,97962.09
2023-03-27T04:14:03.971Z,97982.19
2023-03-27T04:16:41.728Z,97984.16
2023-03-27T04:19:23.928Z,97999.34
2023-03-27T04:22:02.580Z,97996.16
2023-03-27T04:24:38.744Z,98013.47
2023-03-27T04:27:13.862Z,98018.22
2023-03-27T04:30:10.233Z,98027.19
2023-03-27T04:33:00.282Z,98024.59
2023-03-27T04:36:05.967Z,98048.56
2023-03-27T04:38:48.018Z,98065.66
2023-03-27T04:41:21.384Z,98068.09
2023-03-27T04:43:55.800Z,98078.00
2023-03-27T04:46:28.492Z,98091.53
2023-03-27T04:49:10.635Z,98108.66
2023-03-27T04:52:00.832Z,98113.88
2023-03-27T04:54:34.628Z,98117.03
2023-03-27T04:57:07.850Z,98138.06
2023-03-27T04:59:39.812Z,98145.03
2023-03-27T05:02:37.685Z,98161.47
2023-03-27T05:05:22.094Z,98165.28
2023-03-27T05:07:55.776Z,98172.28
2023-03-27T05:10:29.942Z,98182.22
2023-03-27T05:13:01.791Z,98189.09
2023-03-27T05:15:33.781Z,98201.59
2023-03-27T05:18:09.139Z,98210.56
2023-03-27T05:20:43.889Z,98209.88
2023-03-27T05:23:16.574Z,98213.44
2023-03-27T05:25:59.913Z,98218.53
2023-03-27T05:28:42.472Z,98229.56
2023-03-27T05:31:14.158Z,98242.50
2023-03-27T05:34:02.757Z,98244.28
2023-03-27T05:36:37.553Z,98251.84
2023-03-27T05:39:09.363Z,98257.41
2023-03-27T05:42:01.007Z,98270.50
2023-03-27T05:44:32.657Z,98281.34
2023-03-27T05:47:07.380Z,98286.19
2023-03-27T05:49:41.250Z,98290.88
2023-03-27T05:52:16.936Z,98295.53
2023-03-27T05:54:50.235Z,98309.78
2023-03-27T05:57:22.023Z,98319.81
2023-03-27T06:00:00.271Z,98328.97
2023-03-27T06:02:32.082Z,98318.78
2023-03-27T06:05:10.895Z,98347.19
2023-03-27T06:07:45.335Z,98343.47
2023-03-27T06:10:18.306Z,98354.31
2023-03-27T06:13:16.342Z,98370.50
2023-03-27T06:16:01.469Z,98367.63
2023-03-27T06:18:51.723Z,98377.34
2023-03-27T06:21:24.779Z,98393.38
2023-03-27T06:24:02.705Z,98380.59
2023-03-27T06:26:34.763Z,98395.84
2023-03-27T06:29:08.769Z,98404.88
2023-03-27T06:31:44.793Z,98401.97
2023-03-27T06:34:27.787Z,98416.91
2023-03-27T06:37:37.232Z,98421.63
2023-03-27T06:40:10.421Z,98423.91
2023-03-27T06:42:52.147Z,98434.88
2023-03-27T06:45:46.218Z,98431.03
2023-03-27T06:48:22.076Z,98438.69
2023-03-27T06:51:00.506Z,98435.06
2023-03-27T06:53:37.902Z,98443.59
2023-03-27T06:56:10.316Z,98450.00
2023-03-27T06:59:01.300Z,98450.84
2023-03-27T07:01:33.381Z,98450.38
2023-03-27T07:04:23.794Z,98447.84
2023-03-27T07:07:04.333Z,98460.09
2023-03-27T07:09:40.912Z,98459.63
2023-03-27T07:12:13.989Z,98465.47
2023-03-27T07:14:48.364Z,98478.16
2023-03-27T07:17:20.302Z,98488.84
2023-03-27T07:19:56.823Z,98488.03
2023-03-27T07:22:32.092Z,98494.66
2023-03-27T07:25:12.236Z,98515.13
2023-03-27T07:27:47.241Z,98513.31
2023-03-27T07:30:19.419Z,98513.59
2023-03-27T07:32:51.598Z,98521.88
2023-03-27T07:35:25.625Z,98520.34
2023-03-27T07:38:35.983Z,98536.13
2023-03-27T07:41:19.669Z,98546.13
2023-03-27T07:44:14.637Z,98549.38
2023-03-27T07:46:58.693Z,98547.66
2023-03-27T07:49:40.333Z,98559.06
2023-03-27T07:52:21.798Z,98557.22
2023-03-27T07:55:03.310Z,98566.72
2023-03-27T07:57:59.810Z,98569.41
2023-03-27T08:00:35.206Z,98574.94
2023-03-27T08:03:19.679Z,98582.88
2023-03-27T08:05:58.285Z,98588.41
2023-03-27T08:08:32.890Z,98602.81
2023-03-27T08:11:09.655Z,98596.53
2023-03-27T08:13:45.801Z,98610.78
2023-03-27T08:16:19.316Z,98614.22
2023-03-27T08:18:51.227Z,98614.97
2023-03-27T08:21:23.875Z,98624.56
2023-03-27T08:23:57.795Z,98632.56
2023-03-27T08:26:40.487Z,98622.72
2023-03-27T08:29:19.723Z,98644.69
2023-03-27T08:31:52.744Z,98647.00
2023-03-27T08:34:24.472Z,98651.13
2023-03-27T08:36:58.000Z,98656.78
2023-03-27T08:39:39.797Z,98657.16
2023-03-27T08:42:19.211Z,98670.25
2023-03-27T08:44:57.786Z,98662.41
2023-03-27T08:47:50.514Z,98672.56
2023-03-27T08:50:36.299Z,98677.50
2023-03-27T08:53:35.989Z,98686.69
2023-03-27T08:56:13.920Z,98691.44
2023-03-27T08:58:47.050Z,98692.72
2023-03-27T09:01:49.342Z,98691.91
2023-03-27T09:04:37.585Z,98706.38
2023-03-27T09:07:19.006Z,98713.66
2023-03-27T09:10:32.079Z,98718.66
2023-03-27T09:13:20.898Z,98715.31
2023-03-27T09:16:10.985Z,98722.88
2023-03-27T09:18:56.306Z,98739.41
2023-03-27T09:21:58.094Z,98728.19
2023-03-27T09:24:54.233Z,98738.34
2023-03-27T09:27:49.456Z,98742.25
2023-03-27T09:30:33.800Z,98751.50
2023-03-27T09:33:12.356Z,98753.72
2023-03-27T09:35:46.698Z,98753.34
2023-03-27T09:38:33.214Z,98757.00
2023-03-27T09:41:13.079Z,98756.53
2023-03-27T09:44:15.020Z,98748.38
2023-03-27T09:46:52.336Z,98758.72
2023-03-27T09:49:27.284Z,98769.81
2023-03-27T09:52:02.791Z,98766.56
2023-03-27T09:55:31.315Z,98781.53
2023-03-27T09:58:35.455Z,98780.44
2023-03-27T10:01:19.863Z,98775.59
2023-03-27T10:03:59.701Z,98792.44
2023-03-27T10:06:51.460Z,98792.75
2023-03-27T10:09:34.867Z,98800.03
2023-03-27T10:12:19.334Z,98806.03
2023-03-27T10:14:53.151Z,98825.88
2023-03-27T10:17:36.752Z,98810.22
2023-03-27T10:20:18.713Z,98811.16
2023-03-27T10:22:56.646Z,98821.09
2023-03-27T10:25:38.876Z,98830.41
2023-03-27T10:28:34.591Z,98831.63
2023-03-27T10:31:36.400Z,98826.53
2023-03-27T10:34:29.864Z,98829.81
2023-03-27T10:37:24.335Z,98826.91
2023-03-27T10:40:07.549Z,98835.44
2023-03-27T10:42:43.992Z,98834.31
2023-03-27T10:45:21.329Z,98864.66
2023-03-27T10:47:59.358Z,98852.16
2023-03-27T10:50:53.271Z,98861.56
2023-03-27T10:53:55.009Z,98865.91
2023-03-27T10:56:52.959Z,98859.13
2023-03-27T10:59:55.097Z,98858.91
2023-03-27T11:02:42.372Z,98845.38
2023-03-27T11:05:19.395Z,98856.16
2023-03-27T11:08:15.289Z,98852.06
2023-03-27T11:10:49.488Z,98859.06
2023-03-27T11:13:37.548Z,98847.63
2023-03-27T11:16:37.258Z,98872.44
2023-03-27T11:19:31.466Z,98869.13
2023-03-27T11:22:33.042Z,98875.88
2023-03-27T11:25:26.444Z,98865.25
2023-03-27T11:28:10.962Z,98895.38
2023-03-27T11:30:51.537Z,98898.91
2023-03-27T11:33:29.622Z,98907.22
2023-03-27T11:36:14.385Z,98907.50
2023-03-27T11:39:15.402Z,98911.59
2023-03-27T11:41:54.609Z,98907.41
2023-03-27T11:44:30.458Z,98922.38
2023-03-27T11:47:45.259Z,98920.88
2023-03-27T11:50:22.871Z,98935.34
2023-03-27T11:53:13.096Z,98946.38
2023-03-27T11:56:45.539Z,98941.94
2023-03-27T11:59:42.945Z,98943.72
2023-03-27T12:02:37.783Z,98941.50
2023-03-27T12:05:28.205Z,98951.28
2023-03-27T12:08:10.159Z,98938.28
2023-03-27T12:10:50.563Z,98949.38
2023-03-27T12:13:58.137Z,98953.66
2023-03-27T12:16:56.297Z,98956.16
2023-03-27T12:19:46.805Z,98953.91
2023-03-27T12:23:01.583Z,98959.03
2023-03-27T12:25:56.586Z,98966.59
2023-03-27T12:28:55.640Z,98960.03
2023-03-27T12:32:22.048Z,98952.34
2023-03-27T12:35:03.534Z,98938.06
2023-03-27T12:37:48.788Z,98938.34
2023-03-27T12:40:41.098Z,98930.56
2023-03-27T12:43:27.771Z,98927.63
2023-03-27T12:46:26.296Z,98942.13
2023-03-27T12:49:00.870Z,98944.59
2023-03-27T12:51:53.687Z,98947.50
2023-03-27T12:55:06.504Z,98959.00
2023-03-27T12:58:10.889Z,98955.22
2023-03-27T13:01:06.314Z,98956.69
2023-03-27T13:04:01.484Z,98957.03
2023-03-27T13:07:11.158Z,98947.34
2023-03-27T13:10:47.099Z,98951.63
2023-03-27T13:13:47.888Z,98953.44
2023-03-27T13:16:45.257Z,98965.16
2023-03-27T13:19:38.577Z,98951.63
2023-03-27T13:22:24.479Z,98951.78
2023-03-27T13:25:41.531Z,98962.94
2023-03-27T13:28:28.915Z,98977.66
2023-03-27T13:31:59.917Z,98981.25
2023-03-27T13:35:17.104Z,98970.25
2023-03-27T13:37:48.748Z,98976.97
2023-03-27T13:40:36.806Z,98982.75
2023-03-27T13:43:30.670Z,98977.25
2023-03-27T13:46:29.289Z,98973.66
2023-03-27T13:50:04.930Z,98981.03
2023-03-27T13:53:07.882Z,98995.38
2023-03-27T13:56:15.615Z,98996.38
2023-03-27T13:59:47.957Z,99001.56
2023-03-27T14:02:49.811Z,99004.16
2023-03-27T14:05:46.468Z,99007.09
2023-03-27T14:08:32.601Z,99002.44
2023-03-27T14:11:38.018Z,99001.94
2023-03-27T14:14:18.541Z,99001.28
2023-03-27T14:17:22.220Z,99002.13
2023-03-27T14:20:17.029Z,99004.47
2023-03-27T14:22:54.398Z,98999.06
2023-03-27T14:25:36.504Z,99000.03
2023-03-27T14:28:51.683Z,98998.09
2023-03-27T14:31:35.830Z,99003.53
2023-03-27T14:34:25.582Z,99003.03
2023-03-27T14:37:30.876Z,99007.59
2023-03-27T14:40:28.136Z,99013.91
2023-03-27T14:43:05.281Z,99013.41
2023-03-27T14:45:40.812Z,99020.75
2023-03-27T14:48:21.110Z,99013.56
2023-03-27T14:51:03.266Z,99018.41
2023-03-27T14:53:48.149Z,99014.31
2023-03-27T14:56:29.527Z,99016.00
2023-03-27T14:59:42.925Z,99016.38
2023-03-27T15:02:20.653Z,99017.03
2023-03-27T15:05:01.137Z,99023.09
2023-03-27T15:07:35.496Z,99022.81
2023-03-27T15:10:37.250Z,99028.38
2023-03-27T15:13:12.026Z,99034.41
2023-03-27T15:15:59.103Z,99033.34
2023-03-27T15:18:58.883Z,99059.28
2023-03-27T15:21:50.925Z,99071.69
2023-03-27T15:24:40.721Z,99082.78
2023-03-27T15:27:20.086Z,99071.75
2023-03-27T15:29:57.773Z,99083.75
2023-03-27T15:32:42.461Z,99080.47
2023-03-27T15:35:21.335Z,99076.94
2023-03-27T15:37:54.118Z,99078.28
2023-03-27T15:40:38.163Z,99089.94
2023-03-27T15:43:13.782Z,99085.16
2023-03-27T15:46:04.479Z,99080.31
2023-03-27T15:48:40.701Z,99091.22
2023-03-27T15:51:20.415Z,99099.97
2023-03-27T15:53:55.824Z,99101.41
2023-03-27T15:56:43.829Z,99109.72
2023-03-27T15:59:16.548Z,99116.91
2023-03-27T16:01:54.176Z,99123.31
2023-03-27T16:04:39.151Z,99127.38
2023-03-27T16:07:25.553Z,99141.88
2023-03-27T16:10:05.131Z,99142.91
2023-03-27T16:12:40.759Z,99141.31
2023-03-27T16:15:44.914Z,99152.91
2023-03-27T16:18:25.047Z,99161.06
2023-03-27T16:21:07.923Z,99152.00
2023-03-27T16:23:40.756Z,99162.22
2023-03-27T16:26:16.924Z,99168.72
2023-03-27T16:28:52.720Z,99175.59
2023-03-27T16:31:24.458Z,99182.78
2023-03-27T16:33:58.333Z,99211.31
2023-03-27T16:36:32.692Z,99221.78
2023-03-27T16:39:04.894Z,99228.84
2023-03-27T16:41:38.346Z,99222.91
2023-03-27T16:44:10.020Z,99229.75
2023-03-27T16:46:41.765Z,99232.09
2023-03-27T16:49:13.516Z,99229.75
2023-03-27T16:51:45.401Z,99240.34
2023-03-27T16:54:17.135Z,99247.50
2023-03-27T16:56:48.864Z,99258.47
2023-03-27T16:59:20.741Z,99286.41
2023-03-27T17:01:52.446Z,99289.03
2023-03-27T17:04:24.589Z,99285.63
2023-03-27T17:06:59.212Z,99299.34
2023-03-27T17:09:32.357Z,99292.63
2023-03-27T17:12:04.577Z,99305.34
2023-03-27T17:14:36.371Z,99314.25
2023-03-27T17:17:08.080Z,99307.19
2023-03-27T17:19:42.466Z,99316.38
2023-03-27T17:22:15.448Z,99320.53
2023-03-27T17:24:56.236Z,99316.88
2023-03-27T17:27:28.818Z,99308.69
2023-03-27T19:15:46.832Z,99380.09
2023-03-27T19:24:53.098Z,99379.66
2023-03-27T19:27:25.802Z,99378.84
2023-03-27T19:30:01.267Z,99382.06
2023-03-27T19:32:33.158Z,99382.06
2023-03-27T19:35:07.361Z,99381.91
2023-03-27T19:37:39.399Z,99383.00
2023-03-27T19:40:13.194Z,99376.84
2023-03-27T19:42:45.423Z,99394.97
2023-03-27T19:45:53.115Z,99386.94
2023-03-27T19:48:30.782Z,99385.38
2023-03-27T19:53:14.717Z,99389.28
2023-03-27T19:55:46.495Z,99389.38
2023-03-27T19:58:18.266Z,99399.97
2023-03-27T20:00:52.585Z,99400.31
2023-03-27T20:03:24.452Z,99397.22
2023-03-27T20:06:07.572Z,99397.94
2023-03-27T20:08:40.608Z,99392.59
2023-03-27T20:11:12.427Z,99393.19
2023-03-27T20:13:55.511Z,99385.69
2023-03-27T20:16:29.340Z,99392.09
2023-03-27T20:19:04.511Z,99395.81
2023-03-27T20:21:43.525Z,99397.34
2023-03-27T20:24:18.699Z,99404.16
2023-03-27T20:27:02.193Z,99392.31
2023-03-27T20:29:33.912Z,99404.63
2023-03-27T20:32:07.595Z,99408.94
2023-03-27T20:34:40.626Z,99401.13
2023-03-27T20:37:17.114Z,99398.13
2023-03-27T20:40:12.969Z,99401.69
2023-03-27T20:42:49.315Z,99404.41
2023-03-27T20:45:26.701Z,99401.13
2023-03-27T20:48:03.423Z,99404.28
2023-03-27T20:50:36.661Z,99403.84
2023-03-27T20:53:10.434Z,99402.16
2023-03-27T20:55:49.875Z,99403.94
2023-03-27T20:58:37.935Z,99406.81
2023-03-27T21:01:10.492Z,99392.69
2023-03-27T21:03:46.317Z,99400.91
2023-03-27T21:06:20.569Z,99400.53
2023-03-27T21:08:52.331Z,99397.84
2023-03-27T21:11:24.260Z,99399.00
2023-03-27T21:13:56.186Z,99396.19
2023-03-27T21:16:28.552Z,99394.75
2023-03-27T21:19:00.432Z,99401.50
2023-03-27T21:21:39.162Z,99399.63
2023-03-27T21:24:13.756Z,99399.97
2023-03-27T21:26:45.786Z,99402.44
2023-03-27T21:29:17.507Z,99397.59
2023-03-27T21:34:22.122Z,99399.72
2023-03-27T21:36:53.861Z,99400.41
2023-03-27T21:39:25.807Z,99404.13
2023-03-27T21:41:57.539Z,99405.41
2023-03-27T21:44:29.355Z,99404.09
2023-03-27T21:47:03.858Z,99405.13
2023-03-27T21:49:38.621Z,99409.88
2023-03-27T21:52:10.252Z,99396.84
2023-03-27T21:54:49.897Z,99400.50
2023-03-27T21:57:28.174Z,99399.66
2023-03-27T22:00:00.341Z,99396.22
2023-03-27T22:02:34.976Z,99402.28
2023-03-27T22:05:07.608Z,99399.91
2023-03-27T22:07:39.358Z,99399.81
2023-03-27T22:10:12.150Z,99407.84
2023-03-27T22:12:43.879Z,99404.53
2023-03-27T22:15:15.890Z,99399.06
2023-03-27T22:17:53.653Z,99400.75
2023-03-27T22:20:32.013Z,99410.78
2023-03-27T22:23:03.712Z,99411.63
2023-03-27T22:25:35.858Z,99406.31
2023-03-27T22:28:07.582Z,99415.91
2023-03-27T22:30:39.302Z,99414.44
2023-03-27T22:33:11.052Z,99416.94
2023-03-27T22:35:48.473Z,99420.84
2023-03-27T22:38:20.206Z,99411.34
2023-03-27T22:40:51.964Z,99419.28
2023-03-27T22:43:24.446Z,99418.69
2023-03-27T22:45:56.490Z,99420.25
2023-03-27T22:48:28.286Z,99422.97
2023-03-27T22:51:00.589Z,99427.34
2023-03-27T22:53:33.216Z,99426.41
2023-03-27T22:56:07.052Z,99427.78
2023-03-27T22:58:42.419Z,99431.22
2023-03-27T23:01:13.926Z,99423.03
2023-03-27T23:03:45.974Z,99424.91
2023-03-27T23:06:20.355Z,99429.06
2023-03-27T23:08:52.681Z,99427.31
2023-03-27T23:11:24.443Z,99427.06
2023-03-27T23:13:56.153Z,99428.03
2023-03-27T23:16:30.809Z,99434.78
2023-03-27T23:19:02.983Z,99435.22
2023-03-27T23:21:34.740Z,99425.03
2023-03-27T23:24:07.974Z,99425.03
2023-03-27T23:26:40.757Z,99423.03
2023-03-27T23:29:12.685Z,99425.63
2023-03-27T23:31:44.395Z,99425.44
2023-03-27T23:34:16.126Z,99437.72
2023-03-27T23:36:47.872Z,99440.31
2023-03-27T23:39:19.547Z,99442.19
2023-03-27T23:41:55.345Z,99434.53
2023-03-27T23:44:30.278Z,99451.69
2023-03-27T23:47:02.079Z,99448.03
2023-03-27T23:49:34.099Z,99457.38
2023-03-27T23:52:05.982Z,99455.00
2023-03-27T23:54:37.933Z,99450.41
2023-03-27T23:57:10.752Z,99442.25
2023-03-27T23:59:42.524Z,99439.63
